createdAt,value
2023-05-05T00:01:15.231Z,47.19
2023-05-05T00:03:47.709Z,46.82
2023-05-05T00:06:19.944Z,47.34
2023-05-05T00:08:51.980Z,47.22
2023-05-05T00:11:24.036Z,48.58
2023-05-05T00:13:56.320Z,48.82
2023-05-05T00:16:28.593Z,49.00
2023-05-05T00:19:01.393Z,49.07
2023-05-05T00:21:33.436Z,49.59
2023-05-05T00:24:05.983Z,49.62
2023-05-05T00:26:38.197Z,49.92
2023-05-05T00:29:10.664Z,50.54
2023-05-05T00:31:42.824Z,49.96
2023-05-05T00:34:14.979Z,49.58
2023-05-05T00:36:47.207Z,48.95
2023-05-05T00:39:19.531Z,49.16
2023-05-05T00:41:51.781Z,49.36
2023-05-05T00:44:42.919Z,49.54
2023-05-05T00:47:17.036Z,49.63
2023-05-05T00:49:49.332Z,49.71
2023-05-05T00:52:21.572Z,49.80
2023-05-05T00:54:54.820Z,49.97
2023-05-05T00:57:27.269Z,49.69
2023-05-05T01:00:01.461Z,49.92
2023-05-05T01:02:34.735Z,50.13
2023-05-05T01:05:07.857Z,50.11
2023-05-05T01:07:51.415Z,50.18
2023-05-05T01:10:41.322Z,50.48
2023-05-05T01:13:27.984Z,50.31
2023-05-05T01:16:14.974Z,50.62
2023-05-05T01:18:56.546Z,50.45
2023-05-05T01:21:46.535Z,50.12
2023-05-05T01:24:38.446Z,50.13
2023-05-05T01:27:47.809Z,50.11
2023-05-05T01:30:37.828Z,49.57
2023-05-05T01:33:12.740Z,50.33
2023-05-05T01:35:47.826Z,50.42
2023-05-05T01:38:22.795Z,50.14
2023-05-05T01:41:00.960Z,50.44
2023-05-05T01:43:36.165Z,50.93
2023-05-05T01:46:10.476Z,51.06
2023-05-05T01:48:44.260Z,50.73
2023-05-05T01:51:19.057Z,50.41
2023-05-05T01:53:56.233Z,50.28
2023-05-05T01:56:30.262Z,50.51
2023-05-05T01:59:03.450Z,50.64
2023-05-05T02:01:38.797Z,50.46
2023-05-05T02:04:13.214Z,50.55
2023-05-05T02:06:47.739Z,50.37
2023-05-05T02:09:21.798Z,50.55
2023-05-05T02:11:56.485Z,50.45
2023-05-05T02:14:30.746Z,50.54
2023-05-05T02:17:05.195Z,50.80
2023-05-05T02:19:40.827Z,50.67
2023-05-05T02:22:12.837Z,48.84
2023-05-05T02:24:45.833Z,48.18
2023-05-05T02:27:21.533Z,50.55
2023-05-05T02:29:57.519Z,50.55
2023-05-05T02:32:36.140Z,50.47
2023-05-05T02:35:12.537Z,50.65
2023-05-05T02:37:52.349Z,50.61
2023-05-05T02:40:27.678Z,50.51
2023-05-05T02:43:03.637Z,50.51
2023-05-05T02:45:36.744Z,50.48
2023-05-05T02:48:10.820Z,50.43
2023-05-05T02:50:44.165Z,50.25
2023-05-05T02:53:20.464Z,49.75
2023-05-05T02:56:04.821Z,49.88
2023-05-05T02:58:43.484Z,49.92
2023-05-05T03:01:49.075Z,50.11
2023-05-05T03:04:37.101Z,50.61
2023-05-05T03:07:16.076Z,50.88
2023-05-05T03:10:10.208Z,51.62
2023-05-05T03:12:50.685Z,52.28
2023-05-05T03:15:28.131Z,52.59
2023-05-05T03:20:54.436Z,53.35
2023-05-05T03:23:27.598Z,53.43
2023-05-05T03:26:01.201Z,53.37
2023-05-05T03:28:35.594Z,51.56
2023-05-05T03:31:10.546Z,54.44
2023-05-05T03:33:43.823Z,54.03
2023-05-05T03:36:16.784Z,53.94
2023-05-05T03:38:50.216Z,53.40
2023-05-05T03:41:26.016Z,53.48
2023-05-05T03:43:59.287Z,53.78
2023-05-05T03:46:32.880Z,54.03
2023-05-05T03:49:05.928Z,54.57
2023-05-05T03:51:39.271Z,54.57
2023-05-05T03:54:12.772Z,54.61
2023-05-05T03:56:46.787Z,54.78
2023-05-05T03:59:20.602Z,55.41
2023-05-05T04:01:53.919Z,55.65
2023-05-05T04:04:27.170Z,56.42
2023-05-05T04:07:00.239Z,56.26
2023-05-05T04:09:33.468Z,57.11
2023-05-05T04:12:06.872Z,56.85
2023-05-05T04:14:39.779Z,56.85
2023-05-05T04:17:13.760Z,57.27
2023-05-05T04:19:47.095Z,56.92
2023-05-05T04:22:20.700Z,57.08
2023-05-05T04:24:54.473Z,57.20
2023-05-05T04:27:29.260Z,57.05
2023-05-05T04:30:02.908Z,56.80
2023-05-05T04:32:37.106Z,56.06
2023-05-05T04:35:10.883Z,56.45
2023-05-05T04:37:44.978Z,56.36
2023-05-05T04:40:18.257Z,56.19
2023-05-05T04:42:51.233Z,55.86
2023-05-05T04:45:24.939Z,55.17
2023-05-05T04:48:00.760Z,54.96
2023-05-05T04:50:34.511Z,54.21
2023-05-05T04:53:07.873Z,54.83
2023-05-05T04:55:41.586Z,54.81
2023-05-05T04:58:14.573Z,54.21
2023-05-05T05:00:47.418Z,53.93
2023-05-05T05:03:20.871Z,53.03
2023-05-05T05:05:54.201Z,53.40
2023-05-05T05:08:27.680Z,53.33
2023-05-05T05:11:01.295Z,54.08
2023-05-05T05:13:34.539Z,54.22
2023-05-05T05:16:08.515Z,52.80
2023-05-05T05:18:41.727Z,52.05
2023-05-05T05:21:15.050Z,50.94
2023-05-05T05:23:48.766Z,50.06
2023-05-05T05:26:22.317Z,49.03
2023-05-05T05:28:55.869Z,48.42
2023-05-05T05:31:30.576Z,48.56
2023-05-05T05:34:03.455Z,48.88
2023-05-05T05:36:37.157Z,49.82
2023-05-05T05:39:10.872Z,50.80
2023-05-05T05:41:44.233Z,51.43
2023-05-05T05:44:18.488Z,50.74
2023-05-05T05:46:52.325Z,50.31
2023-05-05T05:49:25.363Z,50.15
2023-05-05T05:51:58.530Z,49.42
2023-05-05T05:54:33.609Z,48.87
2023-05-05T05:57:07.651Z,48.51
2023-05-05T05:59:40.892Z,48.12
2023-05-05T06:02:14.435Z,47.99
2023-05-05T06:04:48.353Z,46.48
2023-05-05T06:07:21.369Z,46.30
2023-05-05T06:09:54.253Z,45.92
2023-05-05T06:12:27.094Z,45.21
2023-05-05T06:15:00.421Z,45.19
2023-05-05T06:17:34.778Z,45.57
2023-05-05T06:20:08.749Z,45.31
2023-05-05T06:22:41.680Z,45.30
2023-05-05T06:25:15.232Z,45.67
2023-05-05T06:27:48.070Z,45.72
2023-05-05T06:30:21.216Z,45.86
2023-05-05T06:32:54.685Z,45.94
2023-05-05T06:35:28.408Z,45.51
2023-05-05T06:38:01.941Z,45.50
2023-05-05T06:40:35.368Z,44.93
2023-05-05T06:43:08.676Z,44.39
2023-05-05T06:45:43.918Z,44.25
2023-05-05T06:48:16.985Z,43.90
2023-05-05T06:50:50.005Z,43.28
2023-05-05T06:53:22.889Z,43.71
2023-05-05T06:55:55.788Z,43.55
2023-05-05T06:58:28.888Z,43.30
2023-05-05T07:01:02.065Z,43.06
2023-05-05T07:03:34.993Z,42.54
2023-05-05T07:06:08.091Z,42.19
2023-05-05T07:08:41.015Z,41.83
2023-05-05T07:11:15.080Z,41.72
2023-05-05T07:13:49.446Z,41.66
2023-05-05T07:16:22.429Z,40.79
2023-05-05T07:18:55.372Z,40.86
2023-05-05T07:21:28.227Z,41.07
2023-05-05T07:24:02.904Z,40.16
2023-05-05T07:26:35.390Z,39.57
2023-05-05T07:29:11.300Z,39.60
2023-05-05T07:31:44.591Z,41.33
2023-05-05T07:34:17.920Z,42.15
2023-05-05T07:36:50.682Z,42.76
2023-05-05T07:39:23.894Z,43.60
2023-05-05T07:41:57.469Z,43.84
2023-05-05T07:44:30.953Z,44.14
2023-05-05T07:47:03.915Z,44.98
2023-05-05T07:49:37.193Z,45.34
2023-05-05T07:52:10.399Z,44.52
2023-05-05T07:54:45.321Z,44.52
2023-05-05T07:57:18.417Z,44.15
2023-05-05T07:59:51.227Z,42.88
2023-05-05T08:02:24.361Z,42.26
2023-05-05T08:04:57.361Z,41.97
2023-05-05T08:07:30.438Z,42.17
2023-05-05T08:10:03.381Z,42.18
2023-05-05T08:12:37.172Z,41.51
2023-05-05T08:15:10.849Z,41.50
2023-05-05T08:17:52.764Z,41.76
2023-05-05T08:20:29.287Z,42.85
2023-05-05T08:23:02.108Z,43.57
2023-05-05T08:25:34.940Z,45.35
2023-05-05T08:28:08.742Z,46.10
2023-05-05T08:30:43.005Z,47.78
2023-05-05T08:33:15.957Z,48.54
2023-05-05T08:35:49.934Z,49.93
2023-05-05T08:38:22.450Z,48.40
2023-05-05T08:40:54.649Z,48.06
2023-05-05T08:43:28.035Z,47.28
2023-05-05T08:46:02.206Z,48.08
2023-05-05T08:48:37.243Z,47.11
2023-05-05T08:51:19.161Z,47.11
2023-05-05T08:54:02.015Z,46.31
2023-05-05T08:56:37.090Z,45.97
2023-05-05T08:59:12.286Z,46.33
2023-05-05T09:01:47.304Z,45.31
2023-05-05T09:04:20.408Z,44.00
2023-05-05T09:06:52.923Z,42.59
2023-05-05T09:09:25.451Z,40.31
2023-05-05T09:11:59.400Z,39.95
2023-05-05T09:17:27.911Z,39.03
2023-05-05T09:20:11.535Z,37.05
2023-05-05T09:22:49.671Z,35.63
2023-05-05T09:25:22.499Z,35.94
2023-05-05T09:27:55.350Z,35.36
2023-05-05T09:30:28.217Z,34.39
2023-05-05T09:33:02.542Z,35.27
2023-05-05T09:35:55.065Z,35.20
2023-05-05T09:38:27.672Z,35.20
2023-05-05T09:41:00.695Z,34.18
2023-05-05T09:43:34.431Z,34.15
2023-05-05T09:46:09.954Z,33.75
2023-05-05T09:48:43.016Z,33.79
2023-05-05T09:51:15.859Z,33.69
2023-05-05T09:53:48.358Z,33.80
2023-05-05T09:56:21.109Z,34.41
2023-05-05T09:58:58.679Z,35.24
2023-05-05T10:01:30.658Z,35.50
2023-05-05T10:04:02.952Z,35.99
2023-05-05T10:06:43.603Z,36.86
2023-05-05T10:09:16.324Z,37.64
2023-05-05T10:11:49.346Z,38.77
2023-05-05T10:14:22.215Z,38.85
2023-05-05T10:16:55.981Z,39.00
2023-05-05T10:19:30.712Z,39.30
2023-05-05T10:22:05.011Z,39.37
2023-05-05T10:24:42.880Z,40.33
2023-05-05T10:27:20.701Z,40.80
2023-05-05T10:30:08.471Z,41.40
2023-05-05T10:32:56.059Z,40.23
2023-05-05T10:35:26.603Z,38.87
2023-05-05T10:38:01.232Z,38.68
2023-05-05T10:40:34.211Z,38.24
2023-05-05T10:43:08.060Z,36.60
2023-05-05T10:45:42.394Z,36.04
2023-05-05T10:48:18.070Z,35.07
2023-05-05T10:50:56.190Z,35.04
2023-05-05T10:53:31.618Z,34.71
2023-05-05T10:56:13.063Z,34.93
2023-05-05T10:58:59.023Z,35.07
2023-05-05T11:01:34.082Z,35.11
2023-05-05T11:04:22.751Z,35.26
2023-05-05T11:07:16.085Z,35.32
2023-05-05T11:10:02.169Z,36.56
2023-05-05T11:13:01.533Z,37.70
2023-05-05T11:15:36.326Z,38.02
2023-05-05T11:18:08.620Z,38.81
2023-05-05T11:20:44.767Z,38.20
2023-05-05T11:23:25.070Z,39.48
2023-05-05T11:25:58.409Z,40.29
2023-05-05T11:28:32.515Z,40.15
2023-05-05T11:31:07.862Z,39.45
2023-05-05T11:33:41.285Z,39.25
2023-05-05T11:36:18.945Z,38.99
2023-05-05T11:39:02.991Z,38.94
2023-05-05T11:41:40.971Z,38.79
2023-05-05T11:44:17.968Z,38.60
2023-05-05T11:46:56.099Z,38.62
2023-05-05T11:49:29.785Z,38.23
2023-05-05T11:52:13.256Z,37.77
2023-05-05T11:54:49.214Z,37.38
2023-05-05T11:57:24.081Z,37.35
2023-05-05T12:00:08.521Z,36.62
2023-05-05T12:02:42.787Z,36.07
2023-05-05T12:05:18.195Z,36.11
2023-05-05T12:07:52.174Z,35.71
2023-05-05T12:10:25.024Z,35.10
2023-05-05T12:12:57.805Z,35.26
2023-05-05T12:15:31.449Z,33.24
2023-05-05T12:18:05.782Z,30.21
2023-05-05T12:20:38.102Z,28.75
2023-05-05T12:23:12.574Z,26.00
2023-05-05T12:25:45.914Z,23.62
2023-05-05T12:28:18.329Z,20.76
2023-05-05T12:31:00.057Z,17.84
2023-05-05T12:33:34.212Z,16.78
2023-05-05T12:36:06.975Z,18.50
2023-05-05T12:38:39.615Z,19.65
2023-05-05T12:41:11.747Z,20.86
2023-05-05T12:43:44.476Z,22.24
2023-05-05T12:46:17.644Z,23.17
2023-05-05T12:49:05.412Z,23.84
2023-05-05T12:51:38.959Z,24.42
2023-05-05T12:54:14.133Z,25.53
2023-05-05T12:56:47.760Z,25.80
2023-05-05T12:59:27.909Z,24.71
2023-05-05T13:02:04.179Z,27.26
2023-05-05T13:04:39.397Z,23.47
2023-05-05T13:07:14.385Z,21.17
2023-05-05T13:09:47.813Z,19.62
2023-05-05T13:12:22.662Z,19.37
2023-05-05T13:14:54.717Z,15.99
2023-05-05T13:17:27.121Z,15.75
2023-05-05T13:20:00.341Z,16.03
2023-05-05T13:22:33.824Z,13.90
2023-05-05T13:25:06.251Z,12.71
2023-05-05T13:27:38.707Z,13.64
2023-05-05T13:30:11.567Z,15.62
2023-05-05T13:32:44.072Z,17.70
2023-05-05T13:35:17.378Z,20.02
2023-05-05T13:37:49.704Z,21.29
2023-05-05T13:40:24.486Z,22.20
2023-05-05T13:42:56.356Z,21.10
2023-05-05T13:45:29.077Z,21.56
2023-05-05T13:48:01.552Z,22.48
2023-05-05T13:50:33.668Z,23.26
2023-05-05T13:53:06.238Z,24.01
2023-05-05T13:55:38.487Z,20.91
2023-05-05T13:58:10.903Z,20.05
2023-05-05T14:00:43.631Z,20.71
2023-05-05T14:03:16.179Z,22.20
2023-05-05T14:05:48.728Z,23.18
2023-05-05T14:08:21.245Z,24.15
2023-05-05T14:10:53.696Z,25.25
2023-05-05T14:13:26.448Z,25.11
2023-05-05T14:15:58.947Z,23.08
2023-05-05T14:18:31.617Z,23.08
2023-05-05T14:21:04.488Z,21.50
2023-05-05T14:23:37.366Z,19.33
2023-05-05T14:26:09.771Z,17.08
2023-05-05T14:28:42.475Z,15.26
2023-05-05T14:31:15.046Z,14.07
2023-05-05T14:33:47.401Z,13.02
2023-05-05T14:36:20.736Z,12.74
2023-05-05T14:38:53.448Z,14.68
2023-05-05T14:41:26.109Z,14.68
2023-05-05T14:43:59.574Z,15.95
2023-05-05T14:46:32.601Z,17.08
2023-05-05T14:49:05.342Z,18.68
2023-05-05T14:51:37.923Z,19.58
2023-05-05T14:54:24.049Z,20.60
2023-05-05T14:56:44.647Z,20.27
2023-05-05T14:59:16.860Z,18.42
2023-05-05T15:01:49.680Z,16.28
2023-05-05T15:04:22.145Z,14.64
2023-05-05T15:06:54.505Z,14.09
2023-05-05T15:09:26.919Z,15.17
2023-05-05T15:11:59.272Z,16.73
2023-05-05T15:14:31.957Z,18.57
2023-05-05T15:17:04.592Z,20.39
2023-05-05T15:19:37.197Z,21.47
2023-05-05T15:22:09.582Z,22.45
2023-05-05T15:24:42.118Z,23.28
2023-05-05T15:27:14.382Z,23.73
2023-05-05T15:29:47.050Z,24.54
2023-05-05T15:32:20.361Z,23.66
2023-05-05T15:34:53.083Z,23.92
2023-05-05T15:37:25.311Z,24.45
2023-05-05T15:39:57.966Z,25.07
2023-05-05T15:42:31.859Z,25.32
2023-05-05T15:45:04.266Z,25.35
2023-05-05T15:47:36.809Z,25.67
2023-05-05T15:50:09.955Z,26.28
2023-05-05T15:52:42.190Z,25.93
2023-05-05T15:55:14.369Z,26.63
2023-05-05T15:57:46.594Z,26.73
2023-05-05T16:00:18.926Z,27.45
2023-05-05T16:02:51.334Z,27.19
2023-05-05T16:05:23.915Z,26.88
2023-05-05T16:07:56.961Z,27.33
2023-05-05T16:10:29.475Z,27.31
2023-05-05T16:13:01.841Z,27.57
2023-05-05T16:15:34.235Z,28.24
2023-05-05T16:18:06.830Z,27.74
2023-05-05T16:20:39.656Z,27.61
2023-05-05T16:23:12.329Z,28.46
2023-05-05T16:25:45.045Z,28.25
2023-05-05T16:28:18.706Z,28.34
2023-05-05T16:30:51.174Z,28.60
2023-05-05T16:33:24.717Z,28.85
2023-05-05T16:35:57.028Z,29.79
2023-05-05T16:38:29.435Z,29.64
2023-05-05T16:41:01.823Z,29.83
2023-05-05T16:43:34.235Z,29.73
2023-05-05T16:46:08.145Z,29.85
2023-05-05T16:48:41.130Z,30.58
2023-05-05T16:51:14.177Z,30.64
2023-05-05T16:53:48.833Z,30.82
2023-05-05T16:56:21.258Z,31.22
2023-05-05T16:58:53.819Z,30.67
2023-05-05T17:01:26.156Z,31.49
2023-05-05T17:04:00.042Z,32.00
2023-05-05T17:06:34.047Z,32.32
2023-05-05T17:09:06.417Z,32.11
2023-05-05T17:11:38.507Z,33.06
2023-05-05T17:14:10.870Z,33.32
2023-05-05T17:16:43.304Z,33.52
2023-05-05T17:19:15.696Z,33.84
2023-05-05T17:21:48.035Z,34.11
2023-05-05T17:24:20.936Z,33.84
2023-05-05T17:26:53.210Z,33.95
2023-05-05T17:29:25.580Z,34.88
2023-05-05T17:31:58.223Z,34.20
2023-05-05T17:34:30.461Z,34.22
2023-05-05T17:37:02.888Z,34.51
2023-05-05T17:39:35.299Z,35.33
2023-05-05T17:42:07.908Z,34.76
2023-05-05T17:44:40.444Z,34.79
2023-05-05T17:47:12.455Z,34.79
2023-05-05T17:49:44.898Z,35.24
2023-05-05T17:52:17.482Z,34.51
2023-05-05T17:54:50.240Z,34.74
2023-05-05T17:57:22.964Z,33.45
2023-05-05T17:59:55.132Z,34.81
2023-05-05T18:02:27.941Z,34.15
2023-05-05T18:05:00.629Z,34.45
2023-05-05T18:07:33.891Z,34.56
2023-05-05T18:10:08.301Z,33.94
2023-05-05T18:12:40.841Z,34.86
2023-05-05T18:15:13.208Z,34.95
2023-05-05T18:17:45.355Z,35.32
2023-05-05T18:20:18.363Z,35.24
2023-05-05T18:22:50.551Z,35.94
2023-05-05T18:25:23.543Z,36.24
2023-05-05T18:27:55.617Z,36.05
2023-05-05T18:30:27.889Z,35.87
2023-05-05T18:33:00.358Z,36.51
2023-05-05T18:35:32.490Z,36.92
2023-05-05T18:38:05.505Z,36.97
2023-05-05T18:40:40.647Z,36.38
2023-05-05T18:43:12.888Z,36.46
2023-05-05T18:45:45.032Z,35.86
2023-05-05T18:48:17.614Z,36.37
2023-05-05T18:50:51.562Z,35.21
2023-05-05T18:53:23.752Z,34.88
2023-05-05T18:55:56.097Z,35.23
2023-05-05T18:58:28.688Z,35.25
2023-05-05T19:01:01.401Z,35.35
2023-05-05T19:03:34.891Z,35.62
2023-05-05T19:06:07.868Z,35.48
2023-05-05T19:08:39.912Z,35.82
2023-05-05T19:11:12.633Z,36.07
2023-05-05T19:13:45.576Z,35.53
2023-05-05T19:16:18.263Z,35.33
2023-05-05T19:18:50.681Z,35.79
2023-05-05T19:21:23.047Z,35.14
2023-05-05T19:23:55.583Z,35.42
2023-05-05T19:26:27.823Z,35.93
2023-05-05T19:29:00.994Z,35.81
2023-05-05T19:31:33.566Z,36.33
2023-05-05T19:34:06.597Z,36.15
2023-05-05T19:36:39.217Z,36.30
2023-05-05T19:39:13.662Z,36.07
2023-05-05T19:41:46.092Z,36.18
2023-05-05T19:44:18.420Z,36.12
2023-05-05T19:46:50.660Z,36.92
2023-05-05T19:49:23.135Z,37.43
2023-05-05T19:51:56.518Z,37.34
2023-05-05T19:54:29.012Z,38.00
2023-05-05T19:57:02.173Z,38.18
2023-05-05T19:59:34.988Z,38.67
2023-05-05T20:02:09.605Z,38.42
2023-05-05T20:04:40.973Z,38.54
2023-05-05T20:07:13.140Z,37.16
2023-05-05T20:09:45.630Z,38.85
2023-05-05T20:12:20.115Z,39.27
2023-05-05T20:14:52.644Z,39.65
2023-05-05T20:17:25.801Z,39.97
2023-05-05T20:19:57.825Z,40.40
2023-05-05T20:22:31.080Z,40.28
2023-05-05T20:25:04.363Z,40.68
2023-05-05T20:27:36.901Z,40.53
2023-05-05T20:30:10.807Z,41.11
2023-05-05T20:32:43.465Z,41.22
2023-05-05T20:35:16.328Z,41.72
2023-05-05T20:37:48.742Z,41.40
2023-05-05T20:40:21.201Z,41.77
2023-05-05T20:42:53.748Z,41.51
2023-05-05T20:45:26.502Z,41.20
2023-05-05T20:47:58.851Z,41.27
2023-05-05T20:50:31.281Z,41.46
2023-05-05T20:53:03.281Z,41.37
2023-05-05T20:55:35.496Z,41.38
2023-05-05T20:58:07.798Z,41.95
2023-05-05T21:00:40.169Z,41.87
2023-05-05T21:03:12.444Z,42.08
2023-05-05T21:05:46.571Z,42.01
2023-05-05T21:08:18.972Z,42.42
2023-05-05T21:10:51.336Z,42.56
2023-05-05T21:13:23.599Z,42.59
2023-05-05T21:15:55.836Z,42.86
2023-05-05T21:18:28.097Z,42.85
2023-05-05T21:21:01.522Z,42.93
2023-05-05T21:23:33.749Z,43.03
2023-05-05T21:26:06.347Z,43.10
2023-05-05T21:28:38.675Z,43.54
2023-05-05T21:31:21.747Z,43.71
2023-05-05T21:33:44.805Z,44.04
2023-05-05T21:36:17.864Z,44.27
2023-05-05T21:38:51.431Z,44.53
2023-05-05T21:41:24.639Z,44.79
2023-05-05T21:43:57.274Z,44.63
2023-05-05T21:46:30.381Z,44.57
2023-05-05T21:49:04.211Z,44.96
2023-05-05T21:51:37.688Z,44.86
2023-05-05T21:54:10.423Z,44.88
2023-05-05T21:56:42.702Z,45.16
2023-05-05T21:59:16.489Z,45.51
2023-05-05T22:01:50.545Z,45.83
2023-05-05T22:04:22.883Z,45.73
2023-05-05T22:06:55.194Z,46.08
2023-05-05T22:09:28.114Z,45.90
2023-05-05T22:12:00.482Z,46.42
2023-05-05T22:14:32.955Z,46.62
2023-05-05T22:17:05.112Z,46.42
2023-05-05T22:19:37.723Z,46.50
2023-05-05T22:22:10.477Z,46.57
2023-05-05T22:24:42.573Z,46.80
2023-05-05T22:27:16.281Z,46.85
2023-05-05T22:29:48.966Z,47.05
2023-05-05T22:32:21.788Z,47.37
2023-05-05T22:34:54.134Z,47.44
2023-05-05T22:37:28.634Z,47.93
2023-05-05T22:40:03.955Z,47.97
2023-05-05T22:42:37.280Z,48.16
2023-05-05T22:45:11.552Z,47.93
2023-05-05T22:47:44.599Z,48.21
2023-05-05T22:50:19.244Z,48.36
2023-05-05T22:52:51.678Z,48.68
2023-05-05T22:55:25.298Z,48.57
2023-05-05T22:57:57.892Z,49.01
2023-05-05T23:00:30.282Z,49.11
2023-05-05T23:03:02.762Z,49.46
2023-05-05T23:05:35.796Z,50.07
2023-05-05T23:08:08.487Z,50.14
2023-05-05T23:10:40.600Z,50.37
2023-05-05T23:13:13.013Z,50.61
2023-05-05T23:15:45.290Z,50.69
2023-05-05T23:18:17.535Z,51.09
2023-05-05T23:20:50.012Z,51.39
2023-05-05T23:23:22.908Z,51.69
2023-05-05T23:25:55.441Z,51.71
2023-05-05T23:28:27.748Z,52.17
2023-05-05T23:31:00.177Z,52.32
2023-05-05T23:33:32.354Z,52.38
2023-05-05T23:36:05.229Z,52.53
2023-05-05T23:38:37.487Z,52.92
2023-05-05T23:41:09.741Z,52.99
2023-05-05T23:43:42.705Z,53.79
2023-05-05T23:46:14.866Z,54.02
2023-05-05T23:48:47.077Z,54.17
2023-05-05T23:51:19.401Z,54.12
2023-05-05T23:53:51.641Z,54.64
2023-05-05T23:56:25.036Z,55.00
2023-05-05T23:58:57.290Z,55.21
